createdAt,value
2018-01-21T00:01:56.343Z,48.00
2018-01-21T00:04:24.680Z,47.90
2018-01-21T00:06:52.248Z,47.90
2018-01-21T00:09:19.836Z,48.10
2018-01-21T00:11:48.203Z,48.10
2018-01-21T00:14:16.666Z,48.00
2018-01-21T00:16:44.234Z,47.90
2018-01-21T00:19:11.809Z,47.90
2018-01-21T00:21:39.400Z,48.00
2018-01-21T00:24:07.037Z,47.90
2018-01-21T00:26:34.679Z,48.00
2018-01-21T00:29:02.249Z,47.90
2018-01-21T00:31:29.836Z,47.80
2018-01-21T00:33:58.183Z,47.80
2018-01-21T00:36:25.784Z,47.80
2018-01-21T00:38:53.357Z,47.80
2018-01-21T00:41:20.935Z,47.80
2018-01-21T00:43:48.510Z,47.70
2018-01-21T00:46:16.096Z,47.70
2018-01-21T00:48:44.458Z,47.90
2018-01-21T00:51:12.372Z,47.80
2018-01-21T00:53:39.968Z,47.80
2018-01-21T00:56:07.542Z,47.90
2018-01-21T00:58:35.119Z,47.70
2018-01-21T01:01:02.728Z,47.80
2018-01-21T01:03:30.327Z,47.80
2018-01-21T01:05:58.681Z,48.00
2018-01-21T01:08:26.269Z,48.00
2018-01-21T01:10:53.843Z,47.80
2018-01-21T01:13:21.440Z,48.00
2018-01-21T01:15:49.016Z,47.90
2018-01-21T01:18:16.594Z,47.90
2018-01-21T01:20:44.175Z,47.90
2018-01-21T01:23:11.740Z,47.80
2018-01-21T01:25:39.362Z,47.80
2018-01-21T01:28:06.940Z,47.70
2018-01-21T01:30:34.509Z,47.70
2018-01-21T01:33:02.093Z,47.70
2018-01-21T01:35:29.677Z,47.70
2018-01-21T01:37:58.054Z,47.80
2018-01-21T01:40:26.402Z,47.80
2018-01-21T01:42:54.014Z,47.80
2018-01-21T01:45:21.602Z,47.70
2018-01-21T01:47:49.952Z,48.30
2018-01-21T01:50:17.562Z,47.60
2018-01-21T01:52:45.146Z,47.80
2018-01-21T01:55:13.486Z,48.30
2018-01-21T01:57:41.058Z,47.70
2018-01-21T02:00:08.704Z,47.60
2018-01-21T02:02:36.319Z,47.60
2018-01-21T02:05:04.678Z,47.70
2018-01-21T02:07:32.249Z,47.60
2018-01-21T02:10:00.604Z,47.90
2018-01-21T02:12:28.177Z,47.50
2018-01-21T02:14:55.795Z,47.50
2018-01-21T02:17:23.382Z,47.50
2018-01-21T02:19:50.951Z,47.50
2018-01-21T02:22:18.516Z,47.50
2018-01-21T02:24:46.094Z,47.40
2018-01-21T02:27:14.469Z,47.50
2018-01-21T02:29:42.821Z,47.50
2018-01-21T02:32:10.384Z,47.40
2018-01-21T02:34:37.948Z,47.50
2018-01-21T02:37:05.521Z,47.50
2018-01-21T02:39:33.132Z,47.60
2018-01-21T02:42:01.480Z,47.90
2018-01-21T02:44:29.816Z,47.50
2018-01-21T02:46:57.384Z,47.50
2018-01-21T02:49:24.978Z,47.80
2018-01-21T02:51:53.355Z,47.50
2018-01-21T02:54:21.703Z,47.60
2018-01-21T02:56:49.288Z,47.60
2018-01-21T02:59:17.640Z,47.40
2018-01-21T03:01:45.227Z,47.40
2018-01-21T03:04:13.605Z,47.50
2018-01-21T03:06:41.954Z,47.50
2018-01-21T03:09:09.558Z,47.50
2018-01-21T03:11:37.898Z,48.00
2018-01-21T03:14:05.483Z,47.50
2018-01-21T03:16:33.098Z,47.50
2018-01-21T03:19:00.682Z,47.50
2018-01-21T03:21:28.282Z,47.60
2018-01-21T03:23:56.617Z,47.80
2018-01-21T03:26:24.198Z,47.70
2018-01-21T03:28:51.811Z,47.80
2018-01-21T03:31:19.413Z,47.80
2018-01-21T03:33:46.998Z,47.90
2018-01-21T03:36:15.332Z,47.80
2018-01-21T03:38:42.902Z,47.80
2018-01-21T03:41:10.499Z,47.80
2018-01-21T03:43:43.945Z,47.80
2018-01-21T03:46:11.548Z,47.80
2018-01-21T03:48:39.886Z,47.80
2018-01-21T03:51:07.453Z,47.80
2018-01-21T03:53:35.027Z,47.90
2018-01-21T03:56:02.598Z,47.80
2018-01-21T03:58:30.192Z,47.70
2018-01-21T04:00:57.785Z,47.80
2018-01-21T04:03:25.356Z,47.70
2018-01-21T04:05:52.947Z,47.80
2018-01-21T04:08:25.447Z,47.70
2018-01-21T04:10:53.063Z,47.60
2018-01-21T04:13:20.633Z,47.60
2018-01-21T04:15:48.221Z,47.50
2018-01-21T04:18:16.558Z,47.60
2018-01-21T04:20:44.143Z,47.60
2018-01-21T04:23:11.753Z,47.60
2018-01-21T04:25:39.325Z,47.50
2018-01-21T04:28:06.896Z,47.50
2018-01-21T04:30:34.483Z,47.60
2018-01-21T04:33:02.067Z,47.60
2018-01-21T04:35:30.455Z,47.60
2018-01-21T04:37:58.041Z,47.50
2018-01-21T04:40:25.624Z,47.70
2018-01-21T04:42:53.192Z,47.60
2018-01-21T04:45:20.778Z,47.50
2018-01-21T04:47:49.136Z,47.50
2018-01-21T04:50:23.016Z,47.40
2018-01-21T04:52:50.616Z,47.50
2018-01-21T04:55:18.204Z,47.50
2018-01-21T04:57:45.792Z,47.50
2018-01-21T05:00:13.362Z,47.40
2018-01-21T05:02:40.947Z,47.30
2018-01-21T05:05:08.563Z,47.40
2018-01-21T05:07:36.147Z,47.40
2018-01-21T05:10:03.713Z,47.50
2018-01-21T05:12:31.662Z,47.40
2018-01-21T05:14:59.258Z,47.50
2018-01-21T05:17:26.870Z,47.60
2018-01-21T05:19:54.442Z,47.30
2018-01-21T05:22:22.032Z,47.30
2018-01-21T05:24:49.618Z,47.30
2018-01-21T05:27:17.209Z,47.40
2018-01-21T05:29:44.773Z,47.30
2018-01-21T05:32:12.360Z,47.40
2018-01-21T05:34:39.966Z,47.40
2018-01-21T05:37:08.310Z,47.40
2018-01-21T05:39:35.898Z,47.30
2018-01-21T05:42:04.254Z,47.40
2018-01-21T05:44:31.825Z,47.40
2018-01-21T05:46:59.425Z,47.40
2018-01-21T05:49:27.007Z,47.40
2018-01-21T05:51:54.595Z,47.30
2018-01-21T05:54:22.179Z,47.30
2018-01-21T05:56:50.521Z,47.20
2018-01-21T05:59:18.122Z,47.10
2018-01-21T06:01:45.709Z,47.30
2018-01-21T06:04:13.299Z,47.40
2018-01-21T06:06:40.865Z,47.10
2018-01-21T06:09:14.061Z,47.10
2018-01-21T06:11:41.659Z,46.90
2018-01-21T06:14:10.010Z,47.00
2018-01-21T06:16:37.611Z,46.90
2018-01-21T06:19:05.951Z,46.90
2018-01-21T06:21:33.533Z,46.90
2018-01-21T06:24:01.152Z,46.80
2018-01-21T06:26:28.727Z,46.50
2018-01-21T06:28:56.311Z,46.70
2018-01-21T06:31:23.888Z,46.60
2018-01-21T06:33:52.228Z,46.60
2018-01-21T06:36:19.885Z,46.60
2018-01-21T06:38:47.532Z,46.50
2018-01-21T06:41:15.112Z,46.70
2018-01-21T06:43:42.690Z,46.60
2018-01-21T06:46:10.293Z,46.60
2018-01-21T06:48:37.898Z,46.60
2018-01-21T06:51:05.480Z,46.60
2018-01-21T06:53:33.053Z,46.50
2018-01-21T06:56:01.400Z,47.30
2018-01-21T06:58:28.972Z,46.70
2018-01-21T07:00:56.619Z,46.70
2018-01-21T07:03:27.357Z,46.80
2018-01-21T07:05:54.925Z,46.80
2018-01-21T07:08:22.500Z,46.90
2018-01-21T07:10:50.079Z,47.00
2018-01-21T07:13:18.449Z,46.90
2018-01-21T07:15:46.799Z,46.80
2018-01-21T07:18:14.394Z,46.80
2018-01-21T07:20:42.741Z,46.60
2018-01-21T07:23:10.326Z,46.60
2018-01-21T07:25:38.691Z,46.60
2018-01-21T07:28:07.031Z,46.60
2018-01-21T07:30:34.651Z,46.60
2018-01-21T07:33:03.054Z,46.40
2018-01-21T07:35:30.662Z,46.40
2018-01-21T07:37:58.237Z,46.30
2018-01-21T07:40:25.812Z,46.50
2018-01-21T07:42:54.191Z,46.30
2018-01-21T07:45:22.534Z,46.30
2018-01-21T07:47:50.103Z,46.30
2018-01-21T07:50:17.673Z,46.30
2018-01-21T07:52:45.252Z,46.20
2018-01-21T07:55:13.627Z,46.30
2018-01-21T07:57:41.979Z,46.20
2018-01-21T08:00:09.561Z,46.10
2018-01-21T08:02:37.142Z,46.20
2018-01-21T08:05:05.476Z,46.30
2018-01-21T08:07:33.085Z,46.30
2018-01-21T08:10:01.434Z,46.70
2018-01-21T08:12:29.022Z,46.10
2018-01-21T08:14:57.370Z,46.30
2018-01-21T08:17:24.936Z,46.30
2018-01-21T08:19:52.535Z,46.30
2018-01-21T08:22:20.113Z,46.20
2018-01-21T08:24:47.680Z,46.10
2018-01-21T08:27:15.249Z,46.10
2018-01-21T08:29:42.848Z,46.00
2018-01-21T08:32:11.242Z,46.00
2018-01-21T08:34:45.422Z,45.80
2018-01-21T08:37:18.887Z,45.80
2018-01-21T08:39:52.109Z,45.80
2018-01-21T08:42:34.596Z,45.90
2018-01-21T08:45:02.174Z,45.90
2018-01-21T08:47:29.749Z,46.30
2018-01-21T08:49:57.325Z,46.40
2018-01-21T08:52:25.683Z,47.10
2018-01-21T08:54:53.295Z,46.60
2018-01-21T08:57:20.889Z,47.10
2018-01-21T08:59:48.487Z,47.60
2018-01-21T09:02:16.832Z,48.00
2018-01-21T09:04:44.410Z,47.90
2018-01-21T09:07:12.021Z,47.80
2018-01-21T09:09:39.596Z,48.20
2018-01-21T09:12:07.179Z,48.30
2018-01-21T09:14:34.779Z,48.20
2018-01-21T09:17:03.130Z,48.10
2018-01-21T09:19:30.780Z,48.00
2018-01-21T09:21:58.381Z,47.70
2018-01-21T09:24:25.989Z,47.10
2018-01-21T09:26:53.560Z,46.80
2018-01-21T09:29:21.148Z,46.70
2018-01-21T09:31:48.766Z,46.70
2018-01-21T09:34:16.398Z,46.70
2018-01-21T09:36:44.741Z,46.70
2018-01-21T09:39:13.244Z,46.70
2018-01-21T09:41:42.624Z,48.10
2018-01-21T09:44:10.207Z,48.10
2018-01-21T09:46:38.550Z,47.90
2018-01-21T09:49:06.166Z,47.90
2018-01-21T09:51:33.758Z,48.40
2018-01-21T09:54:01.339Z,48.40
2018-01-21T09:56:28.930Z,48.50
2018-01-21T09:58:57.271Z,48.80
2018-01-21T10:01:24.891Z,48.80
2018-01-21T10:03:52.474Z,48.60
2018-01-21T10:06:20.062Z,48.40
2018-01-21T10:08:47.650Z,48.20
2018-01-21T10:11:15.996Z,48.30
2018-01-21T10:13:43.628Z,48.20
2018-01-21T10:16:11.216Z,48.40
2018-01-21T10:18:39.574Z,48.20
2018-01-21T10:21:07.145Z,48.20
2018-01-21T10:23:34.724Z,47.70
2018-01-21T10:26:02.346Z,47.30
2018-01-21T10:28:29.944Z,47.10
2018-01-21T10:30:58.315Z,47.00
2018-01-21T10:33:25.908Z,47.00
2018-01-21T10:35:55.505Z,47.20
2018-01-21T10:38:26.656Z,47.60
2018-01-21T10:40:54.247Z,46.70
2018-01-21T10:43:21.855Z,46.50
2018-01-21T10:45:49.424Z,46.50
2018-01-21T10:48:17.032Z,46.90
2018-01-21T10:50:45.563Z,47.00
2018-01-21T10:53:13.145Z,46.60
2018-01-21T10:55:41.596Z,45.90
2018-01-21T10:58:09.177Z,45.80
2018-01-21T11:00:42.486Z,45.90
2018-01-21T11:03:10.835Z,46.60
2018-01-21T11:05:39.425Z,46.50
2018-01-21T11:08:07.017Z,46.60
2018-01-21T11:10:35.359Z,46.40
2018-01-21T11:13:02.982Z,46.30
2018-01-21T11:15:31.310Z,46.20
2018-01-21T11:17:58.920Z,46.20
2018-01-21T11:20:26.496Z,46.40
2018-01-21T11:22:54.092Z,46.70
2018-01-21T11:25:22.616Z,46.80
2018-01-21T11:27:50.232Z,46.80
2018-01-21T11:30:17.906Z,46.50
2018-01-21T11:32:45.480Z,46.50
2018-01-21T11:35:13.847Z,46.40
2018-01-21T11:37:44.451Z,46.40
2018-01-21T11:40:12.066Z,46.30
2018-01-21T11:42:40.398Z,46.10
2018-01-21T11:45:07.969Z,46.00
2018-01-21T11:47:35.555Z,46.00
2018-01-21T11:50:04.907Z,46.20
2018-01-21T11:52:32.521Z,46.20
2018-01-21T11:55:00.860Z,46.10
2018-01-21T11:57:28.440Z,46.10
2018-01-21T11:59:56.031Z,45.90
2018-01-21T12:02:24.381Z,46.00
2018-01-21T12:04:56.008Z,46.10
2018-01-21T12:07:24.590Z,46.00
2018-01-21T12:09:52.175Z,46.00
2018-01-21T12:12:19.793Z,45.90
2018-01-21T12:14:48.313Z,45.80
2018-01-21T12:17:16.911Z,46.00
2018-01-21T12:19:44.480Z,46.00
2018-01-21T12:22:12.832Z,46.20
2018-01-21T12:24:43.906Z,46.20
2018-01-21T12:27:13.282Z,46.40
2018-01-21T12:29:40.866Z,46.40
2018-01-21T12:32:11.199Z,46.60
2018-01-21T12:34:39.542Z,46.80
2018-01-21T12:37:07.121Z,46.80
2018-01-21T12:39:34.720Z,46.90
2018-01-21T12:42:02.312Z,46.90
2018-01-21T12:44:29.885Z,47.10
2018-01-21T12:46:57.471Z,47.10
2018-01-21T12:49:25.826Z,47.40
2018-01-21T12:51:53.443Z,47.30
2018-01-21T12:54:21.026Z,47.30
2018-01-21T12:56:48.600Z,47.20
2018-01-21T12:59:16.190Z,47.20
2018-01-21T13:01:43.786Z,47.00
2018-01-21T13:04:12.304Z,47.10
2018-01-21T13:06:39.887Z,46.90
2018-01-21T13:09:07.467Z,47.00
2018-01-21T13:11:39.285Z,47.20
2018-01-21T13:14:06.863Z,47.20
2018-01-21T13:16:34.475Z,47.20
2018-01-21T13:19:04.026Z,47.30
2018-01-21T13:21:31.614Z,47.30
2018-01-21T13:23:59.978Z,47.30
2018-01-21T13:26:27.571Z,47.30
2018-01-21T13:28:55.935Z,47.50
2018-01-21T13:31:26.213Z,47.60
2018-01-21T13:33:53.796Z,47.60
2018-01-21T13:36:21.372Z,47.60
2018-01-21T13:38:49.726Z,48.00
2018-01-21T13:41:17.338Z,47.70
2018-01-21T13:43:44.953Z,47.60
2018-01-21T13:46:12.530Z,47.60
2018-01-21T13:48:40.889Z,47.20
2018-01-21T13:51:08.465Z,47.20
2018-01-21T13:53:37.086Z,47.20
2018-01-21T13:56:04.686Z,47.20
2018-01-21T13:58:32.291Z,47.20
2018-01-21T14:00:59.891Z,47.40
2018-01-21T14:03:28.492Z,47.50
2018-01-21T14:05:56.100Z,47.60
2018-01-21T14:08:24.440Z,47.60
2018-01-21T14:10:54.068Z,47.60
2018-01-21T14:13:21.658Z,47.60
2018-01-21T14:15:52.037Z,47.00
2018-01-21T14:18:19.638Z,47.10
2018-01-21T14:20:48.002Z,46.70
2018-01-21T14:23:16.345Z,46.50
2018-01-21T14:25:43.934Z,46.40
2018-01-21T14:28:12.511Z,46.40
2018-01-21T14:30:41.100Z,46.40
2018-01-21T14:33:08.706Z,46.30
2018-01-21T14:35:36.299Z,46.40
2018-01-21T14:38:03.872Z,46.50
2018-01-21T14:40:31.465Z,46.50
2018-01-21T14:42:59.810Z,46.30
2018-01-21T14:45:28.380Z,46.30
2018-01-21T14:47:55.981Z,46.40
2018-01-21T14:50:24.333Z,46.60
2018-01-21T14:52:52.723Z,46.60
2018-01-21T14:55:20.362Z,46.60
2018-01-21T14:57:47.957Z,46.60
2018-01-21T15:00:16.469Z,46.50
2018-01-21T15:02:44.050Z,46.80
2018-01-21T15:05:11.630Z,46.90
2018-01-21T15:07:39.227Z,46.90
2018-01-21T15:10:07.585Z,47.10
2018-01-21T15:12:35.199Z,47.00
2018-01-21T15:15:02.826Z,47.00
2018-01-21T15:17:30.405Z,47.10
2018-01-21T15:19:58.733Z,47.20
2018-01-21T15:22:26.323Z,47.20
2018-01-21T15:24:53.966Z,47.20
2018-01-21T15:27:21.541Z,47.30
2018-01-21T15:29:49.164Z,47.30
2018-01-21T15:34:50.675Z,47.40
2018-01-21T15:37:18.293Z,47.40
2018-01-21T15:39:45.874Z,47.40
2018-01-21T15:42:14.232Z,48.00
2018-01-21T15:44:41.800Z,48.00
2018-01-21T15:47:09.372Z,48.20
2018-01-21T15:49:37.231Z,48.00
2018-01-21T15:52:04.805Z,48.10
2018-01-21T15:54:32.400Z,48.10
2018-01-21T15:57:01.101Z,48.10
2018-01-21T15:59:29.475Z,48.50
2018-01-21T16:01:57.837Z,48.20
2018-01-21T16:04:26.385Z,48.30
2018-01-21T16:06:57.648Z,48.20
2018-01-21T16:09:26.227Z,48.30
2018-01-21T16:11:53.885Z,48.20
2018-01-21T16:14:21.499Z,48.30
2018-01-21T16:16:49.146Z,48.40
2018-01-21T16:19:17.543Z,48.40
2018-01-21T16:21:45.163Z,48.40
2018-01-21T16:24:12.806Z,48.60
2018-01-21T16:26:40.402Z,48.50
2018-01-21T16:29:08.808Z,48.80
2018-01-21T16:31:38.272Z,48.60
2018-01-21T16:34:05.849Z,48.50
2018-01-21T16:36:33.474Z,48.60
2018-01-21T16:39:01.092Z,48.50
2018-01-21T16:41:29.547Z,48.40
2018-01-21T16:43:57.979Z,48.40
2018-01-21T16:46:25.540Z,48.80
2018-01-21T16:48:53.113Z,48.40
2018-01-21T16:51:20.724Z,48.50
2018-01-21T16:53:49.137Z,48.40
2018-01-21T16:56:16.733Z,48.40
2018-01-21T16:58:44.336Z,48.50
2018-01-21T17:01:12.676Z,48.50
2018-01-21T17:03:41.201Z,48.50
2018-01-21T17:06:08.841Z,48.40
2018-01-21T17:08:38.008Z,48.40
2018-01-21T17:11:05.593Z,48.40
2018-01-21T17:13:34.179Z,48.30
2018-01-21T17:16:02.746Z,48.40
2018-01-21T17:18:30.330Z,48.40
2018-01-21T17:20:58.880Z,48.50
2018-01-21T17:23:26.466Z,48.40
2018-01-21T17:25:54.066Z,48.40
2018-01-21T17:28:21.666Z,48.40
2018-01-21T17:30:49.256Z,48.40
2018-01-21T17:33:16.856Z,48.40
2018-01-21T17:35:44.465Z,48.40
2018-01-21T17:38:12.033Z,48.40
2018-01-21T17:40:39.608Z,48.40
2018-01-21T17:43:08.007Z,49.10
2018-01-21T17:45:38.444Z,48.50
2018-01-21T17:48:06.077Z,48.50
2018-01-21T17:50:34.432Z,48.20
2018-01-21T17:53:02.039Z,48.10
2018-01-21T17:55:30.410Z,48.70
2018-01-21T17:57:58.778Z,48.90
2018-01-21T18:00:27.137Z,49.40
2018-01-21T18:02:54.711Z,49.40
2018-01-21T18:05:22.278Z,49.70
2018-01-21T18:07:49.901Z,49.90
2018-01-21T18:10:17.472Z,50.00
2018-01-21T18:12:45.054Z,49.90
2018-01-21T18:15:12.635Z,50.00
2018-01-21T18:17:40.973Z,50.00
2018-01-21T18:20:08.640Z,50.00
2018-01-21T18:22:38.126Z,49.90
2018-01-21T18:25:05.698Z,50.00
2018-01-21T18:27:33.275Z,50.00
2018-01-21T18:30:00.862Z,50.00
2018-01-21T18:32:29.267Z,49.80
2018-01-21T18:34:56.879Z,49.70
2018-01-21T18:37:24.467Z,49.70
2018-01-21T18:39:52.800Z,49.90
2018-01-21T18:42:20.382Z,49.90
2018-01-21T18:45:00.395Z,50.00
2018-01-21T18:47:27.967Z,50.20
2018-01-21T18:49:55.542Z,50.10
2018-01-21T18:52:23.121Z,50.00
2018-01-21T18:54:51.474Z,50.10
2018-01-21T18:57:19.082Z,50.10
2018-01-21T18:59:47.417Z,50.20
2018-01-21T19:02:15.028Z,50.20
2018-01-21T19:04:42.596Z,50.10
2018-01-21T19:07:10.157Z,50.20
2018-01-21T19:09:37.799Z,50.10
2018-01-21T19:12:06.143Z,50.00
2018-01-21T19:14:33.733Z,50.00
2018-01-21T19:17:02.070Z,49.90
2018-01-21T19:19:29.663Z,49.80
2018-01-21T19:21:57.293Z,49.80
2018-01-21T19:24:24.860Z,49.60
2018-01-21T19:26:52.432Z,49.80
2018-01-21T19:29:20.028Z,49.70
2018-01-21T19:31:48.719Z,49.60
2018-01-21T19:34:16.314Z,49.40
2018-01-21T19:36:43.898Z,49.20
2018-01-21T19:39:17.037Z,49.10
2018-01-21T19:41:52.053Z,49.10
2018-01-21T19:44:19.859Z,48.90
2018-01-21T19:46:47.448Z,48.90
2018-01-21T19:49:15.749Z,48.60
2018-01-21T19:51:44.144Z,48.50
2018-01-21T19:54:21.824Z,48.60
2018-01-21T19:56:50.186Z,48.30
2018-01-21T19:59:18.042Z,48.30
2018-01-21T20:01:45.644Z,48.20
2018-01-21T20:04:14.041Z,48.10
2018-01-21T20:06:41.646Z,48.00
2018-01-21T20:09:09.220Z,47.90
2018-01-21T20:11:44.351Z,47.90
2018-01-21T20:14:11.924Z,47.90
2018-01-21T20:16:39.510Z,47.90
2018-01-21T20:19:13.963Z,47.80
2018-01-21T20:21:41.832Z,47.80
2018-01-21T20:24:15.456Z,47.70
2018-01-21T20:26:43.983Z,47.80
2018-01-21T20:29:11.706Z,47.70
2018-01-21T20:31:39.318Z,47.80
2018-01-21T20:34:06.910Z,48.40
2018-01-21T20:36:35.557Z,47.80
2018-01-21T20:39:08.164Z,47.80
2018-01-21T20:41:36.034Z,47.70
2018-01-21T20:44:03.630Z,47.80
2018-01-21T20:46:31.208Z,47.80
2018-01-21T20:49:00.353Z,47.90
2018-01-21T20:51:33.513Z,47.80
2018-01-21T20:54:08.442Z,47.70
2018-01-21T20:56:36.813Z,47.80
2018-01-21T20:59:05.198Z,47.60
2018-01-21T21:01:33.559Z,47.70
2018-01-21T21:04:01.128Z,47.70
2018-01-21T21:06:43.139Z,47.50
2018-01-21T21:09:11.481Z,47.50
2018-01-21T21:11:39.077Z,47.30
2018-01-21T21:14:09.364Z,47.30
2018-01-21T21:16:37.694Z,47.30
2018-01-21T21:19:06.789Z,47.30
2018-01-21T21:21:34.387Z,47.20
2018-01-21T21:24:04.020Z,47.10
2018-01-21T21:26:33.351Z,47.10
2018-01-21T21:29:02.384Z,47.30
2018-01-21T21:31:29.956Z,47.10
2018-01-21T21:33:57.549Z,47.10
2018-01-21T21:36:25.161Z,47.10
2018-01-21T21:38:52.740Z,47.10
2018-01-21T21:41:20.318Z,47.10
2018-01-21T21:43:47.895Z,46.90
2018-01-21T21:46:16.242Z,46.90
2018-01-21T21:48:43.853Z,46.90
2018-01-21T21:51:12.189Z,46.80
2018-01-21T21:53:40.765Z,46.90
2018-01-21T21:56:08.351Z,46.80
2018-01-21T21:58:35.947Z,46.80
2018-01-21T22:01:03.580Z,46.70
2018-01-21T22:03:31.928Z,46.80
2018-01-21T22:05:59.506Z,47.30
2018-01-21T22:08:27.113Z,46.70
2018-01-21T22:10:54.701Z,46.70
2018-01-21T22:13:22.305Z,46.70
2018-01-21T22:15:50.660Z,46.70
2018-01-21T22:18:18.237Z,46.70
2018-01-21T22:20:45.822Z,46.70
2018-01-21T22:23:14.173Z,46.60
2018-01-21T22:25:41.788Z,47.10
2018-01-21T22:28:09.375Z,46.60
2018-01-21T22:30:38.970Z,46.50
2018-01-21T22:33:06.555Z,46.50
2018-01-21T22:35:34.144Z,46.50
2018-01-21T22:38:02.508Z,46.60
2018-01-21T22:40:30.098Z,46.50
2018-01-21T22:42:57.676Z,46.40
2018-01-21T22:45:25.245Z,46.20
2018-01-21T22:47:52.829Z,46.30
2018-01-21T22:50:21.437Z,46.20
2018-01-21T22:52:49.031Z,46.20
2018-01-21T22:55:16.635Z,46.80
2018-01-21T22:57:44.224Z,46.30
2018-01-21T23:00:13.611Z,46.20
2018-01-21T23:02:41.236Z,46.20
2018-01-21T23:05:08.822Z,46.10
2018-01-21T23:07:36.393Z,46.10
2018-01-21T23:10:12.329Z,46.30
2018-01-21T23:12:39.913Z,46.10
2018-01-21T23:15:07.513Z,46.10
2018-01-21T23:17:35.080Z,46.20
2018-01-21T23:20:02.662Z,46.10
2018-01-21T23:22:30.238Z,46.10
2018-01-21T23:24:57.817Z,46.10
2018-01-21T23:27:25.430Z,46.20
2018-01-21T23:29:53.008Z,46.10
2018-01-21T23:32:20.584Z,46.00
2018-01-21T23:34:48.150Z,46.00
2018-01-21T23:37:15.768Z,46.00
2018-01-21T23:39:43.348Z,46.00
2018-01-21T23:42:10.930Z,46.10
2018-01-21T23:44:38.546Z,46.00
2018-01-21T23:47:06.144Z,46.10
2018-01-21T23:49:33.730Z,46.00
2018-01-21T23:52:05.158Z,46.00
2018-01-21T23:54:32.752Z,46.00
2018-01-21T23:57:01.134Z,46.00
2018-01-21T23:59:29.490Z,46.00
